Portada
METAR-TAF:

METAR-TAF

Aeroports :

Diourbel, Senegal

latitud: 14-39N, longitud: 016-14W, altitud: 7 m

Observació

L'informe es va fer fa 1 hora i 14 minuts, a les 06:00 UTC
Vent 8 kt del Oest
Temperatura 27°C
Humitat 94%
Pressió 1012 hPa
Visibilitat 10 km o més
Núvols disperses a una alçada de 1300 ft

METAR: GOOD 200600Z 28008KT 9999 SCT013 27/26 Q1012

Hora: 07:14 (07:14 UTC)


TAF: manca

Observacions i pronòstics meteorològics de més de 4000 aeroports (METAR i TAF).

Les estacions disponibles són els punts grocs i vermells al mapa.

Posi el ratolí al punt desitjat per veure el nom de l'estació.

Feu clic per veure les observacions i els pronòstics meteorològics.

Per canviar el mapa: feu clic els botons verds amb una creu de color negre per apropar; al botó verd amb un guió per allunyar la imatge; o en les fletxes verdes per a mapes adjacents.


METAR-TAF: